createdAt,value
2019-03-30T00:00:42.218Z,10.30
2019-03-30T00:03:10.734Z,10.30
2019-03-30T00:05:39.374Z,10.20
2019-03-30T00:08:07.957Z,10.20
2019-03-30T00:10:36.784Z,10.10
2019-03-30T00:13:05.777Z,10.10
2019-03-30T00:15:34.348Z,10.00
2019-03-30T00:18:02.987Z,9.90
2019-03-30T00:20:31.652Z,9.90
2019-03-30T00:23:00.333Z,9.90
2019-03-30T00:25:28.992Z,9.90
2019-03-30T00:27:57.547Z,9.80
2019-03-30T00:30:26.168Z,9.70
2019-03-30T00:32:54.790Z,9.60
2019-03-30T00:35:23.446Z,9.50
2019-03-30T00:37:52.115Z,9.50
2019-03-30T00:40:20.749Z,9.50
2019-03-30T00:42:50.156Z,9.50
2019-03-30T00:45:19.247Z,9.50
2019-03-30T00:47:47.880Z,9.60
2019-03-30T00:50:16.525Z,9.50
2019-03-30T00:52:45.100Z,9.50
2019-03-30T00:55:13.665Z,9.40
2019-03-30T00:57:42.232Z,9.40
2019-03-30T01:00:11.242Z,9.40
2019-03-30T01:02:39.805Z,9.40
2019-03-30T01:05:08.528Z,9.30
2019-03-30T01:07:37.093Z,9.20
2019-03-30T01:10:06.943Z,9.20
2019-03-30T01:12:35.710Z,9.20
2019-03-30T01:15:06.572Z,9.30
2019-03-30T01:17:35.204Z,9.30
2019-03-30T01:20:05.872Z,9.30
2019-03-30T01:22:34.529Z,9.20
2019-03-30T01:25:03.542Z,9.20
2019-03-30T01:27:32.193Z,9.10
2019-03-30T01:30:00.694Z,9.10
2019-03-30T01:32:29.274Z,9.20
2019-03-30T01:34:57.794Z,9.20
2019-03-30T01:37:26.369Z,9.20
2019-03-30T01:39:55.018Z,9.20
2019-03-30T01:42:23.641Z,9.00
2019-03-30T01:44:52.209Z,8.90
2019-03-30T01:47:20.711Z,8.90
2019-03-30T01:49:49.548Z,8.80
2019-03-30T01:52:18.198Z,8.80
2019-03-30T01:54:47.100Z,8.80
2019-03-30T01:57:15.980Z,8.80
2019-03-30T01:59:44.626Z,8.70
2019-03-30T02:02:13.201Z,8.70
2019-03-30T02:04:41.787Z,8.60
2019-03-30T02:07:10.354Z,8.60
2019-03-30T02:09:39.054Z,8.50
2019-03-30T02:12:07.632Z,8.50
2019-03-30T02:14:36.265Z,8.50
2019-03-30T02:17:05.135Z,8.50
2019-03-30T02:19:33.864Z,8.60
2019-03-30T02:22:02.366Z,8.60
2019-03-30T02:24:31.068Z,8.60
2019-03-30T02:26:59.643Z,8.70
2019-03-30T02:29:28.246Z,8.60
2019-03-30T02:31:56.998Z,8.60
2019-03-30T02:34:25.562Z,8.50
2019-03-30T02:36:54.424Z,8.50
2019-03-30T02:39:23.304Z,8.50
2019-03-30T02:41:52.024Z,8.40
2019-03-30T02:44:20.592Z,8.50
2019-03-30T02:46:49.149Z,8.40
2019-03-30T02:49:17.839Z,8.40
2019-03-30T02:51:46.478Z,8.40
2019-03-30T02:54:15.168Z,8.40
2019-03-30T02:56:43.808Z,8.50
2019-03-30T02:59:12.503Z,8.50
2019-03-30T03:01:41.268Z,8.40
2019-03-30T03:04:10.029Z,8.30
2019-03-30T03:06:38.684Z,8.30
2019-03-30T03:09:09.290Z,8.30
2019-03-30T03:11:38.184Z,8.30
2019-03-30T03:14:06.855Z,8.20
2019-03-30T03:16:35.464Z,8.20
2019-03-30T03:19:04.121Z,8.20
2019-03-30T03:21:32.697Z,8.20
2019-03-30T03:24:01.435Z,8.30
2019-03-30T03:26:30.109Z,8.20
2019-03-30T03:28:58.626Z,8.20
2019-03-30T03:31:27.576Z,8.20
2019-03-30T03:33:56.364Z,8.20
2019-03-30T03:36:25.044Z,8.30
2019-03-30T03:38:53.638Z,8.30
2019-03-30T03:41:22.441Z,8.40
2019-03-30T03:43:51.198Z,8.40
2019-03-30T03:46:20.025Z,8.40
2019-03-30T03:48:48.674Z,8.50
2019-03-30T03:51:25.998Z,8.50
2019-03-30T03:53:50.146Z,8.40
2019-03-30T03:56:21.952Z,8.30
2019-03-30T03:58:51.638Z,8.20
2019-03-30T04:01:22.421Z,8.20
2019-03-30T04:03:53.323Z,8.20
2019-03-30T04:06:24.695Z,8.20
2019-03-30T04:08:56.198Z,8.00
2019-03-30T04:11:26.568Z,8.00
2019-03-30T04:13:57.244Z,8.00
2019-03-30T04:16:25.943Z,8.00
2019-03-30T04:18:54.689Z,8.00
2019-03-30T04:21:23.426Z,8.10
2019-03-30T04:23:54.231Z,8.10
2019-03-30T04:26:22.407Z,8.20
2019-03-30T04:28:51.122Z,8.20
2019-03-30T04:31:19.751Z,8.10
2019-03-30T04:33:48.333Z,8.10
2019-03-30T04:36:17.079Z,8.20
2019-03-30T04:38:45.643Z,8.10
2019-03-30T04:41:14.178Z,8.10
2019-03-30T04:43:42.665Z,8.00
2019-03-30T04:46:11.359Z,7.90
2019-03-30T04:48:39.921Z,7.90
2019-03-30T04:51:08.531Z,7.90
2019-03-30T04:53:37.065Z,7.90
2019-03-30T04:56:05.739Z,8.00
2019-03-30T04:58:34.424Z,8.00
2019-03-30T05:01:03.007Z,8.00
2019-03-30T05:03:31.495Z,8.10
2019-03-30T05:06:00.145Z,8.10
2019-03-30T05:08:28.697Z,8.10
2019-03-30T05:10:57.279Z,8.10
2019-03-30T05:13:25.838Z,8.00
2019-03-30T05:15:54.470Z,8.00
2019-03-30T05:18:23.167Z,7.80
2019-03-30T05:20:51.720Z,7.80
2019-03-30T05:23:20.240Z,7.80
2019-03-30T05:25:48.862Z,7.80
2019-03-30T05:28:17.422Z,7.80
2019-03-30T05:30:46.012Z,7.70
2019-03-30T05:33:14.584Z,7.70
2019-03-30T05:35:43.101Z,7.60
2019-03-30T05:38:11.589Z,7.50
2019-03-30T05:40:40.220Z,7.50
2019-03-30T05:43:09.331Z,7.40
2019-03-30T05:45:37.959Z,7.40
2019-03-30T05:48:06.704Z,7.40
2019-03-30T05:50:35.278Z,7.40
2019-03-30T05:53:03.848Z,7.40
2019-03-30T05:55:32.609Z,7.40
2019-03-30T05:58:01.218Z,7.40
2019-03-30T06:00:29.776Z,7.40
2019-03-30T06:02:58.398Z,7.40
2019-03-30T06:05:26.967Z,7.50
2019-03-30T06:07:55.578Z,7.60
2019-03-30T06:10:24.067Z,7.60
2019-03-30T06:12:52.659Z,7.60
2019-03-30T06:15:21.215Z,7.70
2019-03-30T06:17:49.735Z,7.70
2019-03-30T06:20:18.481Z,7.80
2019-03-30T06:22:47.118Z,7.80
2019-03-30T06:25:15.729Z,7.90
2019-03-30T06:27:44.363Z,7.90
2019-03-30T06:30:18.744Z,7.90
2019-03-30T06:32:47.597Z,7.90
2019-03-30T06:35:16.303Z,8.00
2019-03-30T06:37:44.900Z,8.10
2019-03-30T06:40:13.996Z,8.10
2019-03-30T06:42:42.553Z,8.20
2019-03-30T06:45:11.265Z,8.20
2019-03-30T06:47:39.955Z,8.20
2019-03-30T06:50:09.146Z,8.30
2019-03-30T06:52:41.097Z,8.20
2019-03-30T06:55:09.024Z,8.20
2019-03-30T06:57:37.681Z,8.30
2019-03-30T07:00:07.876Z,8.30
2019-03-30T07:02:37.568Z,8.50
2019-03-30T07:05:08.307Z,8.60
2019-03-30T07:07:38.631Z,8.70
2019-03-30T07:10:07.783Z,8.90
2019-03-30T07:12:39.361Z,9.10
2019-03-30T07:15:08.820Z,9.30
2019-03-30T07:17:40.387Z,9.40
2019-03-30T07:20:09.710Z,9.60
2019-03-30T07:22:38.229Z,9.80
2019-03-30T07:25:06.928Z,10.00
2019-03-30T07:27:35.469Z,10.20
2019-03-30T07:30:07.961Z,10.40
2019-03-30T07:32:36.532Z,10.60
2019-03-30T07:35:06.683Z,10.70
2019-03-30T07:37:35.229Z,10.90
2019-03-30T07:40:06.099Z,11.20
2019-03-30T07:42:34.591Z,11.20
2019-03-30T07:45:04.425Z,11.30
2019-03-30T07:47:32.957Z,11.40
2019-03-30T07:50:01.518Z,11.40
2019-03-30T07:52:30.116Z,11.50
2019-03-30T07:54:58.705Z,11.50
2019-03-30T07:57:27.485Z,11.70
2019-03-30T07:59:56.918Z,11.80
2019-03-30T08:02:25.484Z,11.90
2019-03-30T08:04:54.073Z,12.10
2019-03-30T08:07:22.651Z,12.10
2019-03-30T08:09:51.153Z,12.20
2019-03-30T08:12:19.900Z,12.60
2019-03-30T08:14:48.463Z,12.70
2019-03-30T08:17:17.185Z,12.70
2019-03-30T08:19:45.832Z,13.00
2019-03-30T08:22:14.403Z,13.00
2019-03-30T08:24:43.024Z,12.90
2019-03-30T08:27:11.571Z,12.90
2019-03-30T08:29:40.244Z,13.10
2019-03-30T08:32:08.843Z,13.20
2019-03-30T08:34:37.342Z,13.20
2019-03-30T08:37:05.925Z,13.10
2019-03-30T08:39:34.492Z,13.20
2019-03-30T08:42:03.087Z,13.30
2019-03-30T08:44:31.797Z,13.40
2019-03-30T08:47:00.366Z,13.50
2019-03-30T08:49:28.934Z,13.50
2019-03-30T08:51:57.500Z,13.50
2019-03-30T08:54:27.060Z,13.60
2019-03-30T08:56:55.622Z,13.60
2019-03-30T08:59:24.226Z,13.60
2019-03-30T09:01:52.815Z,14.00
2019-03-30T09:04:21.387Z,13.90
2019-03-30T09:06:50.053Z,13.80
2019-03-30T09:09:18.629Z,14.30
2019-03-30T09:11:47.347Z,14.30
2019-03-30T09:14:15.997Z,14.60
2019-03-30T09:16:44.628Z,15.10
2019-03-30T09:19:13.278Z,16.10
2019-03-30T09:21:41.940Z,17.00
2019-03-30T09:24:10.612Z,18.30
2019-03-30T09:26:39.373Z,19.40
2019-03-30T09:29:07.960Z,20.30
2019-03-30T09:31:36.475Z,20.90
2019-03-30T09:34:05.113Z,21.40
2019-03-30T09:36:33.965Z,21.90
2019-03-30T09:39:02.956Z,22.40
2019-03-30T09:41:31.544Z,22.70
2019-03-30T09:44:00.142Z,23.10
2019-03-30T09:46:28.752Z,23.20
2019-03-30T09:48:57.240Z,23.50
2019-03-30T09:51:25.836Z,23.70
2019-03-30T09:53:54.446Z,24.00
2019-03-30T09:56:23.028Z,24.40
2019-03-30T09:58:51.642Z,24.60
2019-03-30T10:01:20.146Z,24.60
2019-03-30T10:03:48.803Z,23.70
2019-03-30T10:06:17.371Z,23.90
2019-03-30T10:08:46.006Z,24.20
2019-03-30T10:11:14.649Z,24.60
2019-03-30T10:13:43.303Z,25.00
2019-03-30T10:16:12.090Z,25.30
2019-03-30T10:18:40.727Z,25.50
2019-03-30T10:21:09.280Z,25.60
2019-03-30T10:23:37.974Z,25.70
2019-03-30T10:26:06.741Z,25.70
2019-03-30T10:28:35.263Z,25.60
2019-03-30T10:31:03.961Z,25.40
2019-03-30T10:33:32.711Z,25.30
2019-03-30T10:36:01.302Z,25.10
2019-03-30T10:38:29.865Z,24.90
2019-03-30T10:40:58.373Z,24.90
2019-03-30T10:43:26.864Z,24.80
2019-03-30T10:45:55.528Z,24.60
2019-03-30T10:48:24.218Z,24.50
2019-03-30T10:50:52.714Z,24.40
2019-03-30T10:53:21.242Z,24.30
2019-03-30T10:55:50.362Z,24.10
2019-03-30T10:58:19.239Z,24.10
2019-03-30T11:00:47.872Z,24.20
2019-03-30T11:03:16.433Z,24.40
2019-03-30T11:05:45.082Z,24.60
2019-03-30T11:08:13.704Z,24.80
2019-03-30T11:10:42.570Z,25.00
2019-03-30T11:13:11.271Z,25.30
2019-03-30T11:15:39.839Z,24.90
2019-03-30T11:18:08.568Z,25.00
2019-03-30T11:20:37.296Z,25.20
2019-03-30T11:23:06.044Z,25.40
2019-03-30T11:25:34.673Z,25.70
2019-03-30T11:28:03.174Z,26.00
2019-03-30T11:30:31.818Z,25.50
2019-03-30T11:33:00.389Z,25.90
2019-03-30T11:35:28.972Z,26.70
2019-03-30T11:37:57.464Z,27.20
2019-03-30T11:40:26.086Z,27.60
2019-03-30T11:42:54.727Z,26.90
2019-03-30T11:45:23.304Z,26.20
2019-03-30T11:47:51.944Z,26.30
2019-03-30T11:50:20.660Z,26.70
2019-03-30T11:52:49.235Z,27.20
2019-03-30T11:55:22.014Z,27.00
2019-03-30T11:57:48.305Z,26.90
2019-03-30T12:00:17.034Z,26.40
2019-03-30T12:02:45.517Z,26.10
2019-03-30T12:05:14.182Z,26.10
2019-03-30T12:07:42.918Z,25.80
2019-03-30T12:10:12.115Z,26.00
2019-03-30T12:13:00.095Z,26.10
2019-03-30T12:15:29.202Z,26.70
2019-03-30T12:17:57.766Z,27.20
2019-03-30T12:20:26.351Z,27.10
2019-03-30T12:22:54.908Z,27.00
2019-03-30T12:25:34.907Z,26.80
2019-03-30T12:27:53.799Z,26.10
2019-03-30T12:30:22.284Z,26.00
2019-03-30T12:32:51.044Z,25.70
2019-03-30T12:35:20.119Z,26.10
2019-03-30T12:37:48.802Z,26.60
2019-03-30T12:40:17.798Z,27.40
2019-03-30T12:42:46.358Z,28.00
2019-03-30T12:45:16.890Z,26.90
2019-03-30T12:47:47.195Z,26.00
2019-03-30T12:50:16.148Z,26.50
2019-03-30T12:52:44.842Z,26.70
2019-03-30T12:55:13.474Z,25.90
2019-03-30T12:57:42.054Z,26.10
2019-03-30T13:00:11.253Z,27.00
2019-03-30T13:02:39.943Z,27.70
2019-03-30T13:05:09.281Z,28.40
2019-03-30T13:07:37.928Z,28.30
2019-03-30T13:10:07.436Z,28.90
2019-03-30T13:12:36.191Z,29.30
2019-03-30T13:15:07.348Z,29.70
2019-03-30T13:17:36.229Z,30.20
2019-03-30T13:20:06.768Z,29.40
2019-03-30T13:22:35.375Z,28.10
2019-03-30T13:25:04.904Z,28.10
2019-03-30T13:27:35.195Z,28.50
2019-03-30T13:30:05.765Z,28.20
2019-03-30T13:32:34.423Z,28.20
2019-03-30T13:35:03.251Z,28.90
2019-03-30T13:37:32.001Z,28.60
2019-03-30T13:40:00.646Z,28.90
2019-03-30T13:42:32.463Z,29.60
2019-03-30T13:45:03.587Z,30.10
2019-03-30T13:47:31.408Z,30.30
2019-03-30T13:49:59.907Z,30.40
2019-03-30T13:52:28.404Z,30.20
2019-03-30T13:54:56.957Z,29.50
2019-03-30T13:57:25.537Z,28.30
2019-03-30T13:59:55.720Z,27.40
2019-03-30T14:02:25.091Z,26.90
2019-03-30T14:04:53.661Z,26.30
2019-03-30T14:07:22.368Z,26.90
2019-03-30T14:09:51.092Z,26.70
2019-03-30T14:12:19.648Z,27.70
2019-03-30T14:14:48.161Z,28.10
2019-03-30T14:17:19.891Z,28.10
2019-03-30T14:19:46.869Z,27.10
2019-03-30T14:22:15.520Z,27.70
2019-03-30T14:24:44.098Z,28.10
2019-03-30T14:27:12.761Z,27.80
2019-03-30T14:29:41.385Z,27.50
2019-03-30T14:32:10.074Z,27.50
2019-03-30T14:34:38.755Z,26.40
2019-03-30T14:37:07.622Z,26.20
2019-03-30T14:39:36.281Z,26.70
2019-03-30T14:42:05.120Z,27.70
2019-03-30T14:44:33.604Z,27.20
2019-03-30T14:47:02.218Z,26.90
2019-03-30T14:49:30.811Z,27.10
2019-03-30T14:51:59.466Z,27.60
2019-03-30T14:54:28.087Z,27.40
2019-03-30T14:56:56.640Z,27.60
2019-03-30T14:59:25.152Z,27.90
2019-03-30T15:01:53.727Z,28.60
2019-03-30T15:04:22.341Z,29.40
2019-03-30T15:06:51.011Z,28.80
2019-03-30T15:09:19.645Z,28.50
2019-03-30T15:11:48.284Z,28.00
2019-03-30T15:14:16.843Z,27.70
2019-03-30T15:16:45.505Z,27.40
2019-03-30T15:19:13.997Z,27.80
2019-03-30T15:21:42.743Z,28.70
2019-03-30T15:24:11.394Z,29.20
2019-03-30T15:26:40.135Z,29.40
2019-03-30T15:29:08.818Z,28.50
2019-03-30T15:31:37.385Z,27.80
2019-03-30T15:34:06.161Z,28.10
2019-03-30T15:36:34.672Z,28.60
2019-03-30T15:39:04.700Z,29.00
2019-03-30T15:41:33.282Z,28.40
2019-03-30T15:44:01.949Z,27.80
2019-03-30T15:46:30.729Z,27.00
2019-03-30T15:48:59.333Z,26.00
2019-03-30T15:51:27.901Z,26.40
2019-03-30T15:53:56.495Z,26.80
2019-03-30T15:56:25.123Z,27.20
2019-03-30T15:58:53.899Z,27.60
2019-03-30T16:01:22.761Z,27.70
2019-03-30T16:03:52.289Z,27.30
2019-03-30T16:06:20.882Z,27.10
2019-03-30T16:08:49.605Z,27.20
2019-03-30T16:11:18.241Z,27.40
2019-03-30T16:13:46.812Z,27.80
2019-03-30T16:16:15.459Z,27.80
2019-03-30T16:18:44.065Z,27.90
2019-03-30T16:21:12.787Z,28.10
2019-03-30T16:23:41.353Z,27.90
2019-03-30T16:26:09.932Z,27.80
2019-03-30T16:28:38.558Z,27.50
2019-03-30T16:31:07.130Z,27.50
2019-03-30T16:33:35.687Z,27.40
2019-03-30T16:36:04.395Z,26.90
2019-03-30T16:38:32.992Z,26.70
2019-03-30T16:41:01.706Z,26.80
2019-03-30T16:43:30.382Z,26.70
2019-03-30T16:45:59.308Z,26.30
2019-03-30T16:48:27.797Z,26.10
2019-03-30T16:50:56.464Z,26.10
2019-03-30T16:53:25.012Z,25.80
2019-03-30T16:55:53.550Z,25.50
2019-03-30T16:58:22.107Z,25.30
2019-03-30T17:00:56.790Z,24.90
2019-03-30T17:03:20.833Z,24.70
2019-03-30T17:05:49.542Z,24.50
2019-03-30T17:08:18.444Z,24.20
2019-03-30T17:10:46.995Z,23.90
2019-03-30T17:13:15.557Z,23.50
2019-03-30T17:15:44.350Z,23.10
2019-03-30T17:18:12.976Z,23.00
2019-03-30T17:20:41.515Z,22.80
2019-03-30T17:23:10.208Z,22.60
2019-03-30T17:25:38.760Z,22.30
2019-03-30T17:28:07.388Z,21.90
2019-03-30T17:30:36.095Z,21.40
2019-03-30T17:33:05.344Z,20.90
2019-03-30T17:35:33.972Z,20.60
2019-03-30T17:38:02.540Z,20.40
2019-03-30T17:40:31.262Z,20.10
2019-03-30T17:42:59.967Z,19.80
2019-03-30T17:45:28.694Z,19.60
2019-03-30T17:47:57.275Z,19.40
2019-03-30T17:50:26.025Z,19.30
2019-03-30T17:52:54.611Z,19.10
2019-03-30T17:55:33.634Z,18.90
2019-03-30T17:57:53.558Z,18.70
2019-03-30T18:00:22.551Z,18.60
2019-03-30T18:02:51.173Z,18.40
2019-03-30T18:05:19.818Z,18.30
2019-03-30T18:07:48.350Z,18.20
2019-03-30T18:10:17.484Z,18.00
2019-03-30T18:12:46.183Z,17.90
2019-03-30T18:15:15.190Z,17.80
2019-03-30T18:17:43.848Z,17.60
2019-03-30T18:20:13.941Z,17.50
2019-03-30T18:22:42.628Z,17.40
2019-03-30T18:25:11.856Z,17.30
2019-03-30T18:27:40.418Z,17.20
2019-03-30T18:30:09.627Z,17.20
2019-03-30T18:32:38.265Z,17.10
2019-03-30T18:35:07.235Z,17.00
2019-03-30T18:37:36.439Z,17.00
2019-03-30T18:40:07.625Z,16.90
2019-03-30T18:42:36.337Z,16.90
2019-03-30T18:45:07.157Z,16.80
2019-03-30T18:47:35.862Z,16.70
2019-03-30T18:50:06.942Z,16.60
2019-03-30T18:52:35.693Z,16.50
2019-03-30T18:55:05.537Z,16.30
2019-03-30T18:57:34.118Z,16.30
2019-03-30T19:00:02.713Z,16.10
2019-03-30T19:02:31.277Z,16.00
2019-03-30T19:04:59.965Z,16.00
2019-03-30T19:07:28.505Z,16.00
2019-03-30T19:09:57.180Z,15.80
2019-03-30T19:12:25.917Z,15.80
2019-03-30T19:14:54.614Z,15.60
2019-03-30T19:17:23.165Z,15.50
2019-03-30T19:19:51.812Z,15.40
2019-03-30T19:22:20.295Z,15.40
2019-03-30T19:24:48.818Z,15.30
2019-03-30T19:27:17.440Z,15.30
2019-03-30T19:29:46.012Z,15.40
2019-03-30T19:32:14.590Z,15.40
2019-03-30T19:34:43.164Z,15.30
2019-03-30T19:37:11.739Z,15.20
2019-03-30T19:39:40.306Z,15.20
2019-03-30T19:42:08.862Z,15.10
2019-03-30T19:44:37.433Z,14.90
2019-03-30T19:47:06.071Z,14.90
2019-03-30T19:49:34.658Z,14.80
2019-03-30T19:52:05.712Z,14.70
2019-03-30T19:54:33.737Z,14.60
2019-03-30T19:57:02.467Z,14.50
2019-03-30T19:59:30.959Z,14.50
2019-03-30T20:01:59.688Z,14.40
2019-03-30T20:04:28.247Z,14.30
2019-03-30T20:06:56.811Z,14.30
2019-03-30T20:09:25.411Z,14.20
2019-03-30T20:11:54.042Z,14.20
2019-03-30T20:14:22.638Z,14.20
2019-03-30T20:16:51.195Z,14.20
2019-03-30T20:19:19.835Z,14.10
2019-03-30T20:21:48.487Z,14.10
2019-03-30T20:24:16.982Z,14.00
2019-03-30T20:26:45.636Z,14.00
2019-03-30T20:29:24.638Z,13.90
2019-03-30T20:31:44.411Z,13.70
2019-03-30T20:34:13.068Z,13.70
2019-03-30T20:36:41.752Z,13.50
2019-03-30T20:39:10.477Z,13.40
2019-03-30T20:41:39.106Z,13.30
2019-03-30T20:44:07.735Z,13.30
2019-03-30T20:46:36.397Z,13.20
2019-03-30T20:49:05.091Z,13.10
2019-03-30T20:51:33.603Z,13.20
2019-03-30T20:54:02.398Z,13.10
2019-03-30T20:56:30.948Z,13.00
2019-03-30T20:58:59.609Z,13.00
2019-03-30T21:01:28.169Z,12.90
2019-03-30T21:03:56.714Z,12.90
2019-03-30T21:06:25.356Z,12.80
2019-03-30T21:08:54.008Z,12.80
2019-03-30T21:11:23.318Z,12.80
2019-03-30T21:13:51.884Z,12.70
2019-03-30T21:16:20.468Z,12.70
2019-03-30T21:18:49.042Z,12.60
2019-03-30T21:21:17.656Z,12.50
2019-03-30T21:23:46.421Z,12.40
2019-03-30T21:26:14.979Z,12.20
2019-03-30T21:28:43.486Z,12.20
2019-03-30T21:31:12.053Z,12.30
2019-03-30T21:33:40.571Z,12.30
2019-03-30T21:36:09.064Z,12.20
2019-03-30T21:38:37.645Z,12.00
2019-03-30T21:41:06.303Z,12.00
2019-03-30T21:43:34.856Z,12.00
2019-03-30T21:46:03.454Z,11.90
2019-03-30T21:48:32.012Z,11.90
2019-03-30T21:51:00.581Z,11.90
2019-03-30T21:53:29.165Z,11.80
2019-03-30T21:55:57.742Z,11.80
2019-03-30T21:58:26.350Z,11.80
2019-03-30T22:00:54.970Z,11.70
2019-03-30T22:03:23.531Z,11.70
2019-03-30T22:05:52.253Z,11.60
2019-03-30T22:08:20.950Z,11.60
2019-03-30T22:10:49.453Z,11.70
2019-03-30T22:13:21.359Z,11.70
2019-03-30T22:15:48.224Z,11.70
2019-03-30T22:18:16.723Z,11.80
2019-03-30T22:20:45.297Z,11.70
2019-03-30T22:23:13.892Z,11.70
2019-03-30T22:25:42.504Z,11.70
2019-03-30T22:28:11.075Z,11.60
2019-03-30T22:30:39.653Z,11.60
2019-03-30T22:33:08.290Z,11.60
2019-03-30T22:35:36.874Z,11.50
2019-03-30T22:38:05.503Z,11.60
2019-03-30T22:40:34.254Z,11.60
2019-03-30T22:43:02.821Z,11.60
2019-03-30T22:45:31.457Z,11.60
2019-03-30T22:48:00.049Z,11.50
2019-03-30T22:50:28.603Z,11.50
2019-03-30T22:52:57.157Z,11.30
2019-03-30T22:55:25.736Z,11.30
2019-03-30T22:57:54.432Z,11.30
2019-03-30T23:00:43.133Z,11.30
2019-03-30T23:03:12.081Z,11.30
2019-03-30T23:05:40.819Z,11.20
2019-03-30T23:08:09.493Z,11.10
2019-03-30T23:10:38.175Z,11.10
2019-03-30T23:13:06.851Z,11.00
2019-03-30T23:15:35.487Z,11.00
2019-03-30T23:18:04.337Z,11.00
2019-03-30T23:20:32.898Z,11.00
2019-03-30T23:23:01.515Z,11.00
2019-03-30T23:25:30.179Z,11.00
2019-03-30T23:27:58.748Z,10.90
2019-03-30T23:30:27.428Z,10.80
2019-03-30T23:32:55.923Z,10.70
2019-03-30T23:35:24.636Z,10.70
2019-03-30T23:37:53.296Z,10.70
2019-03-30T23:40:23.675Z,10.70
2019-03-30T23:42:52.266Z,10.50
2019-03-30T23:45:20.830Z,10.50
2019-03-30T23:47:49.647Z,10.50
2019-03-30T23:50:18.300Z,10.50
2019-03-30T23:52:46.857Z,10.40
2019-03-30T23:55:15.563Z,10.40
2019-03-30T23:57:44.214Z,10.40
